CheckWX is a tool to help pilots better visualize weather data.  It is not intended as a substitute for an official pre-flight weather briefing.

07:23:48 UTC

KELD METAR
South Arkansas Regional at Goodwin Field Airport
El Dorado, Arkansas, USA
Current

31 mins ago

KELD 240653Z AUTO 13004KT 10SM OVC048 12/12 A2991 RMK AO2 SLP126 T01220122
Observed
Feb-24 @ 06:53 UTC
Wind
  • 130° at 4 KTS
Visibility
10 SM
Flight Rules
VFR
Cloud Levels
  • Overcast at 4,800' AGL
Temperature
12°C / 54°F
Dewpoint
12°C / 54°F
Humidity
100%
Altimeter
29.91" Hg
Pressure
1012.92 hPa
Previous

1 hour ago

KELD 240616Z AUTO 11004KT 9SM SCT025 OVC050 12/12 A2990 RMK AO2 T01220122
Observed
Feb-24 @ 06:16 UTC
Wind
  • 110° at 4 KTS
Visibility
9 SM
Flight Rules
VFR
Cloud Levels
  • Scattered at 2,500' AGL
  • Overcast at 5,000' AGL
Temperature
12°C / 54°F
Dewpoint
12°C / 54°F
Humidity
100%
Altimeter
29.9" Hg
Pressure
1012.52 hPa
Previous

2 hours ago

KELD 240553Z AUTO 11004KT 3SM BR SCT020 OVC025 12/12 A2994 RMK AO2 SLP136 60012 T01170117 10128 20111 401390039 50001
Observed
Feb-24 @ 05:53 UTC
Wind
  • 110° at 4 KTS
Visibility
3 SM
Flight Rules
MVFR
Conditions
Mist
Cloud Levels
  • Scattered at 2,000' AGL
  • Overcast at 2,500' AGL
Temperature
12°C / 54°F
Dewpoint
12°C / 54°F
Humidity
100%
Altimeter
29.94" Hg
Pressure
1013.92 hPa